sensor_id;sensor_type;location;lat;lon;timestamp;pressure;altitude;pressure_sealevel;temperature;humidity
47763;BME280;33526;42.690;23.322;2022-12-07T07:47:35;95017.19;;;6.20;87.55
47763;BME280;33526;42.690;23.322;2022-12-07T07:50:02;94946.38;;;5.86;88.34
47763;BME280;33526;42.690;23.322;2022-12-07T07:52:30;95014.56;;;6.42;87.47
47763;BME280;33526;42.690;23.322;2022-12-07T07:54:56;94934.31;;;5.63;86.52
47763;BME280;33526;42.690;23.322;2022-12-07T07:57:23;95010.25;;;5.99;87.74
47763;BME280;33526;42.690;23.322;2022-12-07T07:59:52;94881.44;;;5.28;87.77
47763;BME280;33526;42.690;23.322;2022-12-07T08:02:19;95012.19;;;6.15;87.51
47763;BME280;33526;42.690;23.322;2022-12-07T08:04:46;94913.44;;;5.46;87.29
47763;BME280;33526;42.690;23.322;2022-12-07T08:07:14;95004.94;;;6.04;88.30
47763;BME280;33526;42.690;23.322;2022-12-07T08:09:43;94939.53;;;5.61;88.15
47763;BME280;33526;42.690;23.322;2022-12-07T08:12:10;94946.31;;;5.60;87.18
47763;BME280;33526;42.690;23.322;2022-12-07T08:14:36;94981.22;;;5.87;86.97
47763;BME280;33526;42.690;23.322;2022-12-07T08:17:02;94867.09;;;5.17;87.77
47763;BME280;33526;42.690;23.322;2022-12-07T08:19:29;95014.88;;;6.18;87.33
47763;BME280;33526;42.690;23.322;2022-12-07T08:21:55;94988.00;;;5.86;87.36
47763;BME280;33526;42.690;23.322;2022-12-07T08:24:21;94972.56;;;5.85;87.73
47763;BME280;33526;42.690;23.322;2022-12-07T08:26:46;95009.56;;;5.94;87.62
47763;BME280;33526;42.690;23.322;2022-12-07T08:29:12;94967.22;;;5.78;87.94
47763;BME280;33526;42.690;23.322;2022-12-07T08:31:37;95005.28;;;6.06;87.46
47763;BME280;33526;42.690;23.322;2022-12-07T08:34:03;94948.63;;;5.62;87.46
47763;BME280;33526;42.690;23.322;2022-12-07T08:36:28;94971.75;;;5.71;87.20
47763;BME280;33526;42.690;23.322;2022-12-07T08:38:54;95011.06;;;6.12;87.26
47763;BME280;33526;42.690;23.322;2022-12-07T08:41:19;95012.66;;;6.26;87.49
47763;BME280;33526;42.690;23.322;2022-12-07T08:43:45;94953.03;;;5.88;87.20
47763;BME280;33526;42.690;23.322;2022-12-07T08:48:55;95002.69;;;6.41;86.57
47763;BME280;33526;42.690;23.322;2022-12-07T08:51:22;95005.56;;;6.38;87.00
47763;BME280;33526;42.690;23.322;2022-12-07T08:53:52;94994.69;;;6.43;85.83
47763;BME280;33526;42.690;23.322;2022-12-07T08:56:19;94943.22;;;6.26;85.73
47763;BME280;33526;42.690;23.322;2022-12-07T08:58:45;94963.75;;;6.16;85.70
47763;BME280;33526;42.690;23.322;2022-12-07T09:01:10;94951.34;;;6.07;85.82
47763;BME280;33526;42.690;23.322;2022-12-07T09:03:36;94914.22;;;6.01;86.44
47763;BME280;33526;42.690;23.322;2022-12-07T09:06:01;94921.25;;;6.19;85.26
47763;BME280;33526;42.690;23.322;2022-12-07T09:08:33;94935.56;;;6.30;84.93
47763;BME280;33526;42.690;23.322;2022-12-07T09:11:00;94940.44;;;6.51;84.89
47763;BME280;33526;42.690;23.322;2022-12-07T09:13:26;94865.59;;;6.22;83.62
47763;BME280;33526;42.690;23.322;2022-12-07T09:15:51;94941.97;;;6.78;82.61
47763;BME280;33526;42.690;23.322;2022-12-07T09:18:17;94930.88;;;6.78;81.95
47763;BME280;33526;42.690;23.322;2022-12-07T09:20:42;94888.69;;;6.58;81.94
47763;BME280;33526;42.690;23.322;2022-12-07T09:23:08;94970.59;;;7.14;81.27
47763;BME280;33526;42.690;23.322;2022-12-07T09:25:34;94961.25;;;7.07;81.47
47763;BME280;33526;42.690;23.322;2022-12-07T09:28:00;94965.00;;;7.26;82.04
47763;BME280;33526;42.690;23.322;2022-12-07T09:30:26;94982.28;;;7.56;82.15
47763;BME280;33526;42.690;23.322;2022-12-07T09:32:56;94967.38;;;7.72;80.59
47763;BME280;33526;42.690;23.322;2022-12-07T09:35:23;94912.63;;;7.47;79.90
47763;BME280;33526;42.690;23.322;2022-12-07T09:37:49;94943.13;;;7.73;79.91
47763;BME280;33526;42.690;23.322;2022-12-07T09:40:15;94919.38;;;7.59;78.89
47763;BME280;33526;42.690;23.322;2022-12-07T09:42:44;94927.41;;;7.57;79.07
47763;BME280;33526;42.690;23.322;2022-12-07T09:45:16;94907.44;;;7.36;79.71
47763;BME280;33526;42.690;23.322;2022-12-07T09:47:44;94903.06;;;7.48;80.05
47763;BME280;33526;42.690;23.322;2022-12-07T09:50:14;94894.28;;;7.50;79.64
47763;BME280;33526;42.690;23.322;2022-12-07T09:52:41;94887.31;;;7.54;78.78
47763;BME280;33526;42.690;23.322;2022-12-07T09:55:15;94885.03;;;7.53;78.76
47763;BME280;33526;42.690;23.322;2022-12-07T09:57:41;94938.47;;;8.23;78.30
47763;BME280;33526;42.690;23.322;2022-12-07T10:00:18;94935.22;;;8.24;77.29
47763;BME280;33526;42.690;23.322;2022-12-07T10:02:56;94920.38;;;7.96;77.09
47763;BME280;33526;42.690;23.322;2022-12-07T10:05:47;94926.41;;;7.95;77.54
47763;BME280;33526;42.690;23.322;2022-12-07T10:08:15;94908.31;;;7.99;77.09
47763;BME280;33526;42.690;23.322;2022-12-07T10:10:46;94923.31;;;8.24;76.28
47763;BME280;33526;42.690;23.322;2022-12-07T10:13:16;94888.19;;;7.95;76.91
47763;BME280;33526;42.690;23.322;2022-12-07T10:15:56;94907.09;;;8.63;79.70
47763;BME280;33526;42.690;23.322;2022-12-07T10:18:34;94909.28;;;8.77;76.15
47763;BME280;33526;42.690;23.322;2022-12-07T10:21:11;94811.19;;;8.42;75.25
47763;BME280;33526;42.690;23.322;2022-12-07T10:26:36;94898.66;;;9.41;72.80
47763;BME280;33526;42.690;23.322;2022-12-07T10:31:45;94846.44;;;9.23;71.37
47763;BME280;33526;42.690;23.322;2022-12-07T10:34:24;94876.78;;;9.67;70.90
47763;BME280;33526;42.690;23.322;2022-12-07T10:36:51;94874.31;;;9.50;70.99
47763;BME280;33526;42.690;23.322;2022-12-07T10:39:20;94822.88;;;9.05;71.17
47763;BME280;33526;42.690;23.322;2022-12-07T10:44:48;94833.72;;;8.85;72.31
47763;BME280;33526;42.690;23.322;2022-12-07T10:47:32;94869.38;;;9.08;73.45
47763;BME280;33526;42.690;23.322;2022-12-07T11:09:45;94843.63;;;9.41;71.59
47763;BME280;33526;42.690;23.322;2022-12-07T11:15:00;94786.94;;;8.79;72.90
47763;BME280;33526;42.690;23.322;2022-12-07T11:17:49;94832.66;;;9.19;72.70
47763;BME280;33526;42.690;23.322;2022-12-07T11:29:00;94803.66;;;8.89;73.30
47763;BME280;33526;42.690;23.322;2022-12-07T11:31:39;94737.97;;;8.41;73.56
47763;BME280;33526;42.690;23.322;2022-12-07T11:34:45;94727.13;;;8.34;73.75
47763;BME280;33526;42.690;23.322;2022-12-07T11:37:19;94786.34;;;8.75;74.38
47763;BME280;33526;42.690;23.322;2022-12-07T11:39:50;94795.78;;;8.87;73.86
47763;BME280;33526;42.690;23.322;2022-12-07T11:42:23;94731.50;;;8.45;74.09
47763;BME280;33526;42.690;23.322;2022-12-07T11:44:53;94753.50;;;8.52;74.41
47763;BME280;33526;42.690;23.322;2022-12-07T11:47:44;94786.63;;;8.77;73.96
47763;BME280;33526;42.690;23.322;2022-12-07T11:52:51;94804.28;;;8.93;74.08
47763;BME280;33526;42.690;23.322;2022-12-07T11:55:47;94800.28;;;8.94;73.86
47763;BME280;33526;42.690;23.322;2022-12-07T12:03:44;94759.06;;;8.89;74.00
47763;BME280;33526;42.690;23.322;2022-12-07T12:06:11;94739.56;;;8.89;74.25
47763;BME280;33526;42.690;23.322;2022-12-07T12:22:36;94754.25;;;9.08;73.30
47763;BME280;33526;42.690;23.322;2022-12-07T12:25:06;94744.97;;;9.02;73.81
47763;BME280;33526;42.690;23.322;2022-12-07T12:27:37;94753.94;;;9.15;74.48
47763;BME280;33526;42.690;23.322;2022-12-07T12:30:06;94745.72;;;9.21;73.83
47763;BME280;33526;42.690;23.322;2022-12-07T12:32:42;94700.19;;;8.96;73.85
47763;BME280;33526;42.690;23.322;2022-12-07T12:37:53;94674.63;;;9.07;72.64
47763;BME280;33526;42.690;23.322;2022-12-07T12:42:57;94707.22;;;9.43;72.29
47763;BME280;33526;42.690;23.322;2022-12-07T12:45:25;94726.22;;;9.63;71.96
47763;BME280;33526;42.690;23.322;2022-12-07T12:50:42;94734.75;;;9.69;71.44
47763;BME280;33526;42.690;23.322;2022-12-07T12:53:23;94647.34;;;9.02;72.23
47763;BME280;33526;42.690;23.322;2022-12-07T12:58:40;94730.25;;;9.62;71.52
47763;BME280;33526;42.690;23.322;2022-12-07T13:01:41;94725.22;;;9.75;71.63
47763;BME280;33526;42.690;23.322;2022-12-07T13:04:51;94730.34;;;9.77;71.58
47763;BME280;33526;42.690;23.322;2022-12-07T13:26:36;94701.66;;;9.34;73.59
47763;BME280;33526;42.690;23.322;2022-12-07T13:31:41;94724.41;;;9.42;74.00
47763;BME280;33526;42.690;23.322;2022-12-07T13:34:40;94697.94;;;9.37;74.05
47763;BME280;33526;42.690;23.322;2022-12-07T13:37:18;94719.88;;;9.53;74.07
47763;BME280;33526;42.690;23.322;2022-12-07T13:39:56;94704.63;;;9.30;74.04
47763;BME280;33526;42.690;23.322;2022-12-07T13:42:33;94719.75;;;9.48;74.53
47763;BME280;33526;42.690;23.322;2022-12-07T13:45:16;94714.78;;;9.52;74.48
47763;BME280;33526;42.690;23.322;2022-12-07T13:47:53;94713.53;;;9.53;74.20
47763;BME280;33526;42.690;23.322;2022-12-07T13:50:27;94697.28;;;9.51;74.08
47763;BME280;33526;42.690;23.322;2022-12-07T13:52:56;94707.22;;;9.43;73.98
47763;BME280;33526;42.690;23.322;2022-12-07T13:55:22;94706.56;;;9.48;73.98
47763;BME280;33526;42.690;23.322;2022-12-07T13:57:50;94683.53;;;9.38;74.27
47763;BME280;33526;42.690;23.322;2022-12-07T14:02:58;94711.19;;;9.61;74.00
47763;BME280;33526;42.690;23.322;2022-12-07T14:05:31;94716.13;;;9.66;74.19
47763;BME280;33526;42.690;23.322;2022-12-07T14:07:59;94690.75;;;9.54;73.85
47763;BME280;33526;42.690;23.322;2022-12-07T14:10:38;94703.69;;;9.67;73.70
47763;BME280;33526;42.690;23.322;2022-12-07T14:13:29;94706.81;;;9.69;73.32
47763;BME280;33526;42.690;23.322;2022-12-07T14:15:56;94674.06;;;9.36;74.12
47763;BME280;33526;42.690;23.322;2022-12-07T14:18:38;94712.28;;;9.54;74.18
47763;BME280;33526;42.690;23.322;2022-12-07T14:21:05;94718.50;;;9.49;74.52
47763;BME280;33526;42.690;23.322;2022-12-07T14:23:33;94728.75;;;9.43;75.12
47763;BME280;33526;42.690;23.322;2022-12-07T14:28:36;94669.81;;;9.07;75.63
47763;BME280;33526;42.690;23.322;2022-12-07T14:31:03;94667.34;;;9.09;75.45
47763;BME280;33526;42.690;23.322;2022-12-07T14:33:30;94650.94;;;9.02;75.39
47763;BME280;33526;42.690;23.322;2022-12-07T14:35:56;94723.00;;;9.46;75.16
47763;BME280;33526;42.690;23.322;2022-12-07T14:38:23;94705.25;;;9.25;76.00
47763;BME280;33526;42.690;23.322;2022-12-07T14:40:50;94720.75;;;9.26;75.98
47763;BME280;33526;42.690;23.322;2022-12-07T14:43:17;94716.53;;;9.31;76.42
47763;BME280;33526;42.690;23.322;2022-12-07T14:45:43;94636.75;;;8.72;76.25
47763;BME280;33526;42.690;23.322;2022-12-07T14:48:13;94655.94;;;8.79;76.13
47763;BME280;33526;42.690;23.322;2022-12-07T14:50:41;94680.69;;;8.96;76.47
47763;BME280;33526;42.690;23.322;2022-12-07T14:53:14;94720.16;;;9.22;76.61
47763;BME280;33526;42.690;23.322;2022-12-07T14:55:41;94716.25;;;9.19;77.10
47763;BME280;33526;42.690;23.322;2022-12-07T14:58:13;94672.66;;;8.79;77.54
47763;BME280;33526;42.690;23.322;2022-12-07T15:03:13;94642.19;;;8.48;77.48
47763;BME280;33526;42.690;23.322;2022-12-07T15:05:39;94655.03;;;8.73;80.71
47763;BME280;33526;42.690;23.322;2022-12-07T15:08:14;94729.50;;;9.62;79.19
47763;BME280;33526;42.690;23.322;2022-12-07T15:10:39;94598.06;;;8.56;76.67
47763;BME280;33526;42.690;23.322;2022-12-07T15:13:18;94612.94;;;8.44;76.53
47763;BME280;33526;42.690;23.322;2022-12-07T15:16:03;94659.34;;;8.65;77.30
47763;BME280;33526;42.690;23.322;2022-12-07T15:18:32;94764.00;;;9.03;77.99
47763;BME280;33526;42.690;23.322;2022-12-07T15:21:30;94740.00;;;8.96;78.09
47763;BME280;33526;42.690;23.322;2022-12-07T15:27:12;94609.66;;;7.80;79.72
47763;BME280;33526;42.690;23.322;2022-12-07T15:30:25;94554.56;;;7.38;80.94
47763;BME280;33526;42.690;23.322;2022-12-07T15:33:46;94661.81;;;8.35;81.65
47763;BME280;33526;42.690;23.322;2022-12-07T15:37:00;94624.34;;;7.81;80.56
47763;BME280;33526;42.690;23.322;2022-12-07T15:39:36;94551.00;;;7.38;80.85
47763;BME280;33526;42.690;23.322;2022-12-07T15:42:02;94546.94;;;7.20;80.31
47763;BME280;33526;42.690;23.322;2022-12-07T15:44:29;94564.88;;;7.28;80.75
47763;BME280;33526;42.690;23.322;2022-12-07T15:47:13;94762.16;;;8.54;81.49
47763;BME280;33526;42.690;23.322;2022-12-07T15:49:44;94757.81;;;8.53;81.57
47763;BME280;33526;42.690;23.322;2022-12-07T15:52:42;94754.13;;;8.56;81.45
47763;BME280;33526;42.690;23.322;2022-12-07T15:55:30;94718.63;;;8.29;81.59
47763;BME280;33526;42.690;23.322;2022-12-07T15:57:55;94731.94;;;8.34;81.64
47763;BME280;33526;42.690;23.322;2022-12-07T16:00:21;94666.38;;;7.83;81.64
47763;BME280;33526;42.690;23.322;2022-12-07T16:02:46;94683.44;;;7.94;82.37
47763;BME280;33526;42.690;23.322;2022-12-07T16:05:12;94706.34;;;8.08;83.14
47763;BME280;33526;42.690;23.322;2022-12-07T16:07:37;94706.47;;;7.95;83.41
47763;BME280;33526;42.690;23.322;2022-12-07T16:10:03;94759.59;;;8.19;83.13
47763;BME280;33526;42.690;23.322;2022-12-07T16:12:29;94709.13;;;7.98;84.24
47763;BME280;33526;42.690;23.322;2022-12-07T16:14:54;94770.56;;;8.22;84.31
47763;BME280;33526;42.690;23.322;2022-12-07T16:17:20;94689.22;;;7.69;84.63
47763;BME280;33526;42.690;23.322;2022-12-07T16:19:45;94711.91;;;7.98;83.47
47763;BME280;33526;42.690;23.322;2022-12-07T16:22:10;94675.50;;;7.74;82.91
47763;BME280;33526;42.690;23.322;2022-12-07T16:24:36;94710.78;;;7.87;84.57
47763;BME280;33526;42.690;23.322;2022-12-07T16:27:01;94768.25;;;8.21;85.97
47763;BME280;33526;42.690;23.322;2022-12-07T16:29:27;94709.06;;;7.71;84.99
47763;BME280;33526;42.690;23.322;2022-12-07T16:31:52;94762.34;;;8.10;85.37
47763;BME280;33526;42.690;23.322;2022-12-07T16:34:18;94697.25;;;7.57;84.52
47763;BME280;33526;42.690;23.322;2022-12-07T16:36:44;94691.88;;;7.32;85.47
47763;BME280;33526;42.690;23.322;2022-12-07T16:39:10;94701.19;;;7.38;85.69
47763;BME280;33526;42.690;23.322;2022-12-07T16:41:35;94738.94;;;7.48;86.47
47763;BME280;33526;42.690;23.322;2022-12-07T16:44:06;94783.00;;;7.90;86.10
47763;BME280;33526;42.690;23.322;2022-12-07T16:46:33;94796.25;;;8.17;88.81
47763;BME280;33526;42.690;23.322;2022-12-07T16:48:59;94750.69;;;7.83;87.22
47763;BME280;33526;42.690;23.322;2022-12-07T16:51:25;94768.09;;;7.65;86.01
47763;BME280;33526;42.690;23.322;2022-12-07T16:53:52;94671.31;;;6.98;86.27
47763;BME280;33526;42.690;23.322;2022-12-07T16:56:17;94797.97;;;7.74;86.50
47763;BME280;33526;42.690;23.322;2022-12-07T16:58:43;94734.41;;;7.10;87.01
47763;BME280;33526;42.690;23.322;2022-12-07T17:01:13;94709.19;;;6.82;86.98
47763;BME280;33526;42.690;23.322;2022-12-07T17:03:41;94796.31;;;7.33;87.21
47763;BME280;33526;42.690;23.322;2022-12-07T17:06:15;94798.72;;;7.21;88.09
47763;BME280;33526;42.690;23.322;2022-12-07T17:08:42;94706.88;;;6.59;88.26
47763;BME280;33526;42.690;23.322;2022-12-07T17:11:15;94797.47;;;7.13;88.36
47763;BME280;33526;42.690;23.322;2022-12-07T17:13:41;94731.06;;;6.71;88.98
47763;BME280;33526;42.690;23.322;2022-12-07T17:16:25;94769.81;;;6.97;89.28
47763;BME280;33526;42.690;23.322;2022-12-07T17:18:51;94722.13;;;6.76;90.04
47763;BME280;33526;42.690;23.322;2022-12-07T17:21:19;94769.31;;;7.11;89.74
47763;BME280;33526;42.690;23.322;2022-12-07T17:23:44;94729.59;;;6.79;88.88
47763;BME280;33526;42.690;23.322;2022-12-07T17:26:14;94709.16;;;6.73;89.70
47763;BME280;33526;42.690;23.322;2022-12-07T17:28:40;94742.69;;;6.79;89.08
47763;BME280;33526;42.690;23.322;2022-12-07T17:31:08;94783.81;;;7.06;89.07
47763;BME280;33526;42.690;23.322;2022-12-07T17:33:35;94797.50;;;7.22;87.98
47763;BME280;33526;42.690;23.322;2022-12-07T17:36:01;94756.31;;;6.86;87.70
47763;BME280;33526;42.690;23.322;2022-12-07T17:38:28;94749.53;;;6.65;88.61
47763;BME280;33526;42.690;23.322;2022-12-07T17:40:53;94749.03;;;6.79;89.82
47763;BME280;33526;42.690;23.322;2022-12-07T17:43:19;94750.13;;;6.82;88.72
47763;BME280;33526;42.690;23.322;2022-12-07T17:45:44;94811.09;;;7.20;88.43
47763;BME280;33526;42.690;23.322;2022-12-07T17:48:11;94766.22;;;6.87;88.68
47763;BME280;33526;42.690;23.322;2022-12-07T17:50:38;94748.91;;;6.48;88.65
47763;BME280;33526;42.690;23.322;2022-12-07T17:53:37;94785.31;;;6.63;90.29
47763;BME280;33526;42.690;23.322;2022-12-07T17:56:12;94673.13;;;6.03;89.59
47763;BME280;33526;42.690;23.322;2022-12-07T18:01:47;94677.44;;;6.04;91.60
47763;BME280;33526;42.690;23.322;2022-12-07T18:07:22;94756.16;;;6.45;90.15
47763;BME280;33526;42.690;23.322;2022-12-07T18:10:14;94819.28;;;6.80;90.93
47763;BME280;33526;42.690;23.322;2022-12-07T18:12:51;94757.16;;;6.39;90.20
47763;BME280;33526;42.690;23.322;2022-12-07T18:15:35;94708.84;;;6.01;90.22
47763;BME280;33526;42.690;23.322;2022-12-07T18:18:05;94650.69;;;5.24;90.53
47763;BME280;33526;42.690;23.322;2022-12-07T18:20:32;94844.47;;;6.50;91.36
47763;BME280;33526;42.690;23.322;2022-12-07T18:23:01;94697.34;;;5.64;91.21
47763;BME280;33526;42.690;23.322;2022-12-07T18:30:42;94708.03;;;5.53;91.81
47763;BME280;33526;42.690;23.322;2022-12-07T18:33:17;94827.97;;;6.21;92.53
47763;BME280;33526;42.690;23.322;2022-12-07T19:15:03;94868.59;;;6.15;89.70
47763;BME280;33526;42.690;23.322;2022-12-07T19:17:29;94809.63;;;5.72;90.29
47763;BME280;33526;42.690;23.322;2022-12-07T19:19:55;94744.38;;;5.29;90.89
47763;BME280;33526;42.690;23.322;2022-12-07T19:22:22;94812.66;;;5.78;90.64
47763;BME280;33526;42.690;23.322;2022-12-07T19:24:51;94782.91;;;5.66;90.34
47763;BME280;33526;42.690;23.322;2022-12-07T19:27:18;94724.97;;;5.29;90.58
47763;BME280;33526;42.690;23.322;2022-12-07T19:29:45;94726.88;;;5.32;90.42
47763;BME280;33526;42.690;23.322;2022-12-07T20:51:10;94826.31;;;4.88;92.26
47763;BME280;33526;42.690;23.322;2022-12-07T20:53:36;94893.47;;;5.51;93.33
47763;BME280;33526;42.690;23.322;2022-12-07T20:56:02;94897.94;;;5.61;91.62
47763;BME280;33526;42.690;23.322;2022-12-07T20:58:31;94815.28;;;5.01;91.64
47763;BME280;33526;42.690;23.322;2022-12-07T21:03:32;94906.78;;;5.56;92.41
47763;BME280;33526;42.690;23.322;2022-12-07T21:06:05;94901.56;;;5.45;91.89
47763;BME280;33526;42.690;23.322;2022-12-07T21:24:28;94847.25;;;4.89;92.88
47763;BME280;33526;42.690;23.322;2022-12-07T21:26:53;94856.84;;;5.01;93.17
47763;BME280;33526;42.690;23.322;2022-12-07T21:29:26;94824.84;;;4.84;93.13
47763;BME280;33526;42.690;23.322;2022-12-07T21:31:53;94903.13;;;5.17;93.03
47763;BME280;33526;42.690;23.322;2022-12-07T21:34:19;94881.34;;;5.03;93.44
47763;BME280;33526;42.690;23.322;2022-12-07T21:36:45;94821.72;;;4.52;93.54
47763;BME280;33526;42.690;23.322;2022-12-07T21:39:10;94818.44;;;4.57;93.83
47763;BME280;33526;42.690;23.322;2022-12-07T21:41:37;94903.66;;;5.12;93.96
47763;BME280;33526;42.690;23.322;2022-12-07T21:44:05;94890.19;;;4.97;94.03
47763;BME280;33526;42.690;23.322;2022-12-07T21:46:32;94842.03;;;4.62;94.15
47763;BME280;33526;42.690;23.322;2022-12-07T21:48:59;94850.59;;;4.68;93.80
47763;BME280;33526;42.690;23.322;2022-12-07T21:51:27;94893.22;;;5.03;93.78
47763;BME280;33526;42.690;23.322;2022-12-07T21:53:54;94842.13;;;4.58;93.89
47763;BME280;33526;42.690;23.322;2022-12-07T21:56:22;94901.44;;;5.07;94.40
47763;BME280;33526;42.690;23.322;2022-12-07T21:58:49;94906.63;;;5.05;94.35
47763;BME280;33526;42.690;23.322;2022-12-07T22:01:17;94881.94;;;5.10;94.07
47763;BME280;33526;42.690;23.322;2022-12-07T22:03:44;94902.84;;;5.28;93.40
47763;BME280;33526;42.690;23.322;2022-12-07T22:06:14;94875.28;;;5.08;93.29
47763;BME280;33526;42.690;23.322;2022-12-07T22:08:41;94894.81;;;5.17;93.55
47763;BME280;33526;42.690;23.322;2022-12-07T22:11:07;94896.03;;;5.16;94.25
47763;BME280;33526;42.690;23.322;2022-12-07T22:13:33;94843.81;;;4.85;94.81
47763;BME280;33526;42.690;23.322;2022-12-07T22:16:19;94893.41;;;5.25;93.85
47763;BME280;33526;42.690;23.322;2022-12-07T22:18:45;94835.25;;;4.79;94.24
47763;BME280;33526;42.690;23.322;2022-12-07T22:21:10;94848.16;;;4.86;94.30
47763;BME280;33526;42.690;23.322;2022-12-07T22:23:35;94899.47;;;5.20;94.56
47763;BME280;33526;42.690;23.322;2022-12-07T22:26:06;94866.28;;;5.04;94.46
47763;BME280;33526;42.690;23.322;2022-12-07T22:28:31;94776.38;;;4.46;94.22
47763;BME280;33526;42.690;23.322;2022-12-07T22:31:07;94890.97;;;5.27;94.07
47763;BME280;33526;42.690;23.322;2022-12-07T22:33:33;94894.22;;;5.39;93.48
47763;BME280;33526;42.690;23.322;2022-12-07T22:35:59;94865.13;;;5.30;93.66
47763;BME280;33526;42.690;23.322;2022-12-07T22:38:25;94894.03;;;5.46;92.83
47763;BME280;33526;42.690;23.322;2022-12-07T22:40:52;94883.47;;;5.41;92.00
47763;BME280;33526;42.690;23.322;2022-12-07T22:43:17;94886.72;;;5.52;91.86
47763;BME280;33526;42.690;23.322;2022-12-07T22:45:43;94805.50;;;4.96;91.98
47763;BME280;33526;42.690;23.322;2022-12-07T22:48:09;94784.13;;;4.68;92.29
47763;BME280;33526;42.690;23.322;2022-12-07T22:50:36;94796.56;;;4.76;92.97
47763;BME280;33526;42.690;23.322;2022-12-07T22:53:01;94801.34;;;4.75;93.19
47763;BME280;33526;42.690;23.322;2022-12-07T22:55:28;94765.38;;;4.59;93.38
47763;BME280;33526;42.690;23.322;2022-12-07T22:57:54;94797.44;;;4.73;93.47
47763;BME280;33526;42.690;23.322;2022-12-07T23:00:19;94788.81;;;4.71;92.38
47763;BME280;33526;42.690;23.322;2022-12-07T23:02:46;94877.09;;;5.27;92.00
47763;BME280;33526;42.690;23.322;2022-12-07T23:05:11;94855.88;;;5.08;91.92
47763;BME280;33526;42.690;23.322;2022-12-07T23:07:37;94876.53;;;5.20;92.36
47763;BME280;33526;42.690;23.322;2022-12-07T23:10:03;94804.22;;;4.72;92.84
47763;BME280;33526;42.690;23.322;2022-12-07T23:12:29;94791.63;;;4.54;92.49
47763;BME280;33526;42.690;23.322;2022-12-07T23:18:26;94839.00;;;4.73;92.94
47763;BME280;33526;42.690;23.322;2022-12-07T23:20:54;94885.19;;;4.92;92.84
47763;BME280;33526;42.690;23.322;2022-12-07T23:23:21;94761.94;;;4.09;93.13
47763;BME280;33526;42.690;23.322;2022-12-07T23:25:46;94843.50;;;4.67;93.64
47763;BME280;33526;42.690;23.322;2022-12-07T23:28:11;94776.44;;;4.30;93.99
47763;BME280;33526;42.690;23.322;2022-12-07T23:30:37;94822.69;;;4.46;94.00
47763;BME280;33526;42.690;23.322;2022-12-07T23:33:02;94841.69;;;4.60;94.63
47763;BME280;33526;42.690;23.322;2022-12-07T23:35:28;94785.16;;;4.28;94.66
47763;BME280;33526;42.690;23.322;2022-12-07T23:37:53;94859.00;;;4.64;94.85
47763;BME280;33526;42.690;23.322;2022-12-07T23:40:19;94847.75;;;4.55;94.43
47763;BME280;33526;42.690;23.322;2022-12-07T23:42:44;94844.69;;;4.36;94.72
47763;BME280;33526;42.690;23.322;2022-12-07T23:45:09;94865.25;;;4.52;94.95
47763;BME280;33526;42.690;23.322;2022-12-07T23:47:35;94828.69;;;4.28;94.66
47763;BME280;33526;42.690;23.322;2022-12-07T23:50:00;94799.88;;;4.09;94.69
47763;BME280;33526;42.690;23.322;2022-12-07T23:52:29;94823.66;;;4.22;93.91
47763;BME280;33526;42.690;23.322;2022-12-07T23:54:54;94870.19;;;4.44;93.84
47763;BME280;33526;42.690;23.322;2022-12-07T23:57:20;94813.44;;;4.03;94.56
47763;BME280;33526;42.690;23.322;2022-12-07T23:59:45;94895.78;;;4.65;94.12
